sensor_id;sensor_type;location;lat;lon;timestamp;P1;durP1;ratioP1;P2;durP2;ratioP2
48951;SDS011;34758;42.148;24.744;2023-09-18T00:01:33;3.63;;;1.42;;
48951;SDS011;34758;42.148;24.744;2023-09-18T00:04:00;3.92;;;1.98;;
48951;SDS011;34758;42.148;24.744;2023-09-18T00:06:29;3.17;;;1.55;;
48951;SDS011;34758;42.148;24.744;2023-09-18T00:08:59;3.70;;;1.88;;
48951;SDS011;34758;42.148;24.744;2023-09-18T00:11:29;2.85;;;1.55;;
48951;SDS011;34758;42.148;24.744;2023-09-18T00:13:55;3.42;;;1.70;;
48951;SDS011;34758;42.148;24.744;2023-09-18T00:16:24;5.28;;;1.55;;
48951;SDS011;34758;42.148;24.744;2023-09-18T00:18:52;3.47;;;1.58;;
48951;SDS011;34758;42.148;24.744;2023-09-18T00:21:19;5.63;;;1.73;;
48951;SDS011;34758;42.148;24.744;2023-09-18T00:23:46;6.43;;;1.73;;
48951;SDS011;34758;42.148;24.744;2023-09-18T00:26:14;5.68;;;1.40;;
48951;SDS011;34758;42.148;24.744;2023-09-18T00:28:45;4.63;;;1.70;;
48951;SDS011;34758;42.148;24.744;2023-09-18T00:31:12;4.72;;;1.92;;
48951;SDS011;34758;42.148;24.744;2023-09-18T00:33:40;3.67;;;1.52;;
48951;SDS011;34758;42.148;24.744;2023-09-18T00:36:09;4.45;;;1.83;;
48951;SDS011;34758;42.148;24.744;2023-09-18T00:38:38;4.85;;;1.60;;
48951;SDS011;34758;42.148;24.744;2023-09-18T00:41:05;4.38;;;1.58;;
48951;SDS011;34758;42.148;24.744;2023-09-18T00:43:33;5.10;;;1.90;;
48951;SDS011;34758;42.148;24.744;2023-09-18T00:46:01;4.55;;;1.58;;
48951;SDS011;34758;42.148;24.744;2023-09-18T00:48:28;4.38;;;1.70;;
48951;SDS011;34758;42.148;24.744;2023-09-18T00:50:57;4.55;;;1.73;;
48951;SDS011;34758;42.148;24.744;2023-09-18T00:53:24;5.38;;;1.80;;
48951;SDS011;34758;42.148;24.744;2023-09-18T00:55:55;2.72;;;1.98;;
48951;SDS011;34758;42.148;24.744;2023-09-18T00:58:24;7.93;;;2.30;;
48951;SDS011;34758;42.148;24.744;2023-09-18T01:00:54;3.35;;;1.80;;
48951;SDS011;34758;42.148;24.744;2023-09-18T01:03:23;3.75;;;1.88;;
48951;SDS011;34758;42.148;24.744;2023-09-18T01:05:50;5.95;;;2.00;;
48951;SDS011;34758;42.148;24.744;2023-09-18T01:08:19;5.13;;;1.75;;
48951;SDS011;34758;42.148;24.744;2023-09-18T01:10:47;4.28;;;1.83;;
48951;SDS011;34758;42.148;24.744;2023-09-18T01:13:18;3.13;;;1.67;;
48951;SDS011;34758;42.148;24.744;2023-09-18T01:15:52;4.65;;;1.98;;
48951;SDS011;34758;42.148;24.744;2023-09-18T01:18:22;3.83;;;2.08;;
48951;SDS011;34758;42.148;24.744;2023-09-18T01:20:49;4.03;;;1.65;;
48951;SDS011;34758;42.148;24.744;2023-09-18T01:23:17;8.27;;;2.10;;
48951;SDS011;34758;42.148;24.744;2023-09-18T01:25:44;3.28;;;1.50;;
48951;SDS011;34758;42.148;24.744;2023-09-18T01:28:12;4.60;;;1.58;;
48951;SDS011;34758;42.148;24.744;2023-09-18T01:30:44;4.25;;;1.35;;
48951;SDS011;34758;42.148;24.744;2023-09-18T01:33:12;3.88;;;1.55;;
48951;SDS011;34758;42.148;24.744;2023-09-18T01:35:39;6.80;;;2.25;;
48951;SDS011;34758;42.148;24.744;2023-09-18T01:38:06;2.90;;;1.70;;
48951;SDS011;34758;42.148;24.744;2023-09-18T01:40:37;4.88;;;1.50;;
48951;SDS011;34758;42.148;24.744;2023-09-18T01:43:04;4.72;;;1.75;;
48951;SDS011;34758;42.148;24.744;2023-09-18T01:45:34;6.47;;;1.40;;
48951;SDS011;34758;42.148;24.744;2023-09-18T01:48:03;3.92;;;1.70;;
48951;SDS011;34758;42.148;24.744;2023-09-18T01:50:31;3.35;;;1.80;;
48951;SDS011;34758;42.148;24.744;2023-09-18T01:52:58;4.15;;;1.52;;
48951;SDS011;34758;42.148;24.744;2023-09-18T01:55:27;4.60;;;1.60;;
48951;SDS011;34758;42.148;24.744;2023-09-18T02:00:28;2.80;;;1.70;;
48951;SDS011;34758;42.148;24.744;2023-09-18T02:02:55;4.55;;;1.40;;
48951;SDS011;34758;42.148;24.744;2023-09-18T02:05:23;4.90;;;1.73;;
48951;SDS011;34758;42.148;24.744;2023-09-18T02:07:50;4.20;;;1.60;;
48951;SDS011;34758;42.148;24.744;2023-09-18T02:10:17;3.15;;;1.23;;
48951;SDS011;34758;42.148;24.744;2023-09-18T02:12:45;5.38;;;1.63;;
48951;SDS011;34758;42.148;24.744;2023-09-18T02:15:13;5.97;;;2.28;;
48951;SDS011;34758;42.148;24.744;2023-09-18T02:17:41;3.15;;;2.15;;
48951;SDS011;34758;42.148;24.744;2023-09-18T02:20:09;5.13;;;1.98;;
48951;SDS011;34758;42.148;24.744;2023-09-18T02:22:38;6.03;;;1.83;;
48951;SDS011;34758;42.148;24.744;2023-09-18T02:25:08;3.78;;;1.65;;
48951;SDS011;34758;42.148;24.744;2023-09-18T02:27:35;4.40;;;1.70;;
48951;SDS011;34758;42.148;24.744;2023-09-18T02:30:02;4.30;;;1.75;;
48951;SDS011;34758;42.148;24.744;2023-09-18T02:32:32;2.38;;;1.70;;
48951;SDS011;34758;42.148;24.744;2023-09-18T02:35:00;4.50;;;1.80;;
48951;SDS011;34758;42.148;24.744;2023-09-18T02:37:27;4.32;;;1.60;;
48951;SDS011;34758;42.148;24.744;2023-09-18T02:39:55;3.47;;;1.50;;
48951;SDS011;34758;42.148;24.744;2023-09-18T02:42:23;5.13;;;1.80;;
48951;SDS011;34758;42.148;24.744;2023-09-18T02:44:51;4.63;;;1.95;;
48951;SDS011;34758;42.148;24.744;2023-09-18T02:47:21;5.05;;;1.85;;
48951;SDS011;34758;42.148;24.744;2023-09-18T02:49:50;3.55;;;1.60;;
48951;SDS011;34758;42.148;24.744;2023-09-18T02:52:17;5.90;;;1.70;;
48951;SDS011;34758;42.148;24.744;2023-09-18T02:54:44;5.07;;;1.48;;
48951;SDS011;34758;42.148;24.744;2023-09-18T02:57:12;4.15;;;1.40;;
48951;SDS011;34758;42.148;24.744;2023-09-18T02:59:39;5.32;;;1.75;;
48951;SDS011;34758;42.148;24.744;2023-09-18T03:02:06;5.32;;;1.52;;
48951;SDS011;34758;42.148;24.744;2023-09-18T03:04:33;5.00;;;2.00;;
48951;SDS011;34758;42.148;24.744;2023-09-18T03:07:01;6.00;;;1.80;;
48951;SDS011;34758;42.148;24.744;2023-09-18T03:09:29;3.83;;;1.60;;
48951;SDS011;34758;42.148;24.744;2023-09-18T03:11:57;3.15;;;1.67;;
48951;SDS011;34758;42.148;24.744;2023-09-18T03:14:24;4.15;;;1.70;;
48951;SDS011;34758;42.148;24.744;2023-09-18T03:16:51;6.40;;;1.75;;
48951;SDS011;34758;42.148;24.744;2023-09-18T03:19:18;3.70;;;1.88;;
48951;SDS011;34758;42.148;24.744;2023-09-18T03:21:47;5.20;;;1.75;;
48951;SDS011;34758;42.148;24.744;2023-09-18T03:24:15;7.03;;;2.00;;
48951;SDS011;34758;42.148;24.744;2023-09-18T03:26:42;4.30;;;2.22;;
48951;SDS011;34758;42.148;24.744;2023-09-18T03:29:11;5.00;;;1.92;;
48951;SDS011;34758;42.148;24.744;2023-09-18T03:31:39;3.97;;;1.60;;
48951;SDS011;34758;42.148;24.744;2023-09-18T03:34:07;4.10;;;1.52;;
48951;SDS011;34758;42.148;24.744;2023-09-18T03:36:36;3.97;;;2.20;;
48951;SDS011;34758;42.148;24.744;2023-09-18T03:39:04;8.98;;;2.72;;
48951;SDS011;34758;42.148;24.744;2023-09-18T03:41:37;5.75;;;1.63;;
48951;SDS011;34758;42.148;24.744;2023-09-18T03:44:04;6.32;;;1.65;;
48951;SDS011;34758;42.148;24.744;2023-09-18T03:46:32;3.42;;;1.48;;
48951;SDS011;34758;42.148;24.744;2023-09-18T03:48:59;5.07;;;2.30;;
48951;SDS011;34758;42.148;24.744;2023-09-18T03:51:26;6.82;;;2.30;;
48951;SDS011;34758;42.148;24.744;2023-09-18T03:53:54;6.20;;;2.75;;
48951;SDS011;34758;42.148;24.744;2023-09-18T03:56:21;4.63;;;2.15;;
48951;SDS011;34758;42.148;24.744;2023-09-18T03:58:51;7.55;;;2.00;;
48951;SDS011;34758;42.148;24.744;2023-09-18T04:01:18;3.63;;;1.95;;
48951;SDS011;34758;42.148;24.744;2023-09-18T04:03:45;5.63;;;2.00;;
48951;SDS011;34758;42.148;24.744;2023-09-18T04:06:12;3.25;;;1.85;;
48951;SDS011;34758;42.148;24.744;2023-09-18T04:08:40;4.38;;;1.98;;
48951;SDS011;34758;42.148;24.744;2023-09-18T04:11:07;4.68;;;2.00;;
48951;SDS011;34758;42.148;24.744;2023-09-18T04:13:37;5.57;;;1.98;;
48951;SDS011;34758;42.148;24.744;2023-09-18T04:16:06;3.95;;;1.77;;
48951;SDS011;34758;42.148;24.744;2023-09-18T04:18:34;4.38;;;2.40;;
48951;SDS011;34758;42.148;24.744;2023-09-18T04:21:00;4.25;;;2.10;;
48951;SDS011;34758;42.148;24.744;2023-09-18T04:23:28;5.40;;;1.83;;
48951;SDS011;34758;42.148;24.744;2023-09-18T04:25:55;6.50;;;2.05;;
48951;SDS011;34758;42.148;24.744;2023-09-18T04:28:23;6.80;;;2.00;;
48951;SDS011;34758;42.148;24.744;2023-09-18T04:30:50;9.73;;;1.98;;
48951;SDS011;34758;42.148;24.744;2023-09-18T04:33:22;4.07;;;1.80;;
48951;SDS011;34758;42.148;24.744;2023-09-18T04:35:49;4.75;;;2.00;;
48951;SDS011;34758;42.148;24.744;2023-09-18T04:38:17;5.88;;;2.13;;
48951;SDS011;34758;42.148;24.744;2023-09-18T04:40:45;6.65;;;2.53;;
48951;SDS011;34758;42.148;24.744;2023-09-18T04:43:15;7.97;;;2.47;;
48951;SDS011;34758;42.148;24.744;2023-09-18T04:45:46;6.03;;;2.40;;
48951;SDS011;34758;42.148;24.744;2023-09-18T04:48:16;5.35;;;2.50;;
48951;SDS011;34758;42.148;24.744;2023-09-18T04:50:48;6.72;;;3.00;;
48951;SDS011;34758;42.148;24.744;2023-09-18T04:53:19;9.80;;;3.55;;
48951;SDS011;34758;42.148;24.744;2023-09-18T04:55:49;8.15;;;3.35;;
48951;SDS011;34758;42.148;24.744;2023-09-18T04:58:16;6.45;;;3.25;;
48951;SDS011;34758;42.148;24.744;2023-09-18T05:00:43;10.20;;;3.45;;
48951;SDS011;34758;42.148;24.744;2023-09-18T05:03:11;7.13;;;3.42;;
48951;SDS011;34758;42.148;24.744;2023-09-18T05:05:43;10.20;;;4.30;;
48951;SDS011;34758;42.148;24.744;2023-09-18T05:08:14;10.68;;;4.22;;
48951;SDS011;34758;42.148;24.744;2023-09-18T05:10:41;9.30;;;3.72;;
48951;SDS011;34758;42.148;24.744;2023-09-18T05:13:08;10.43;;;4.05;;
48951;SDS011;34758;42.148;24.744;2023-09-18T05:15:36;11.48;;;3.90;;
48951;SDS011;34758;42.148;24.744;2023-09-18T05:18:03;13.02;;;3.88;;
48951;SDS011;34758;42.148;24.744;2023-09-18T05:20:30;8.02;;;4.10;;
48951;SDS011;34758;42.148;24.744;2023-09-18T05:22:58;9.77;;;3.80;;
48951;SDS011;34758;42.148;24.744;2023-09-18T05:25:28;9.38;;;3.60;;
48951;SDS011;34758;42.148;24.744;2023-09-18T05:27:58;13.65;;;4.07;;
48951;SDS011;34758;42.148;24.744;2023-09-18T05:30:30;7.55;;;3.55;;
48951;SDS011;34758;42.148;24.744;2023-09-18T05:35:31;5.40;;;2.75;;
48951;SDS011;34758;42.148;24.744;2023-09-18T05:37:58;9.05;;;3.65;;
48951;SDS011;34758;42.148;24.744;2023-09-18T05:40:30;11.07;;;2.72;;
48951;SDS011;34758;42.148;24.744;2023-09-18T05:42:57;8.75;;;3.28;;
48951;SDS011;34758;42.148;24.744;2023-09-18T05:45:24;8.05;;;2.70;;
48951;SDS011;34758;42.148;24.744;2023-09-18T05:47:52;6.18;;;2.70;;
48951;SDS011;34758;42.148;24.744;2023-09-18T05:50:20;10.10;;;3.03;;
48951;SDS011;34758;42.148;24.744;2023-09-18T05:52:47;13.75;;;2.60;;
48951;SDS011;34758;42.148;24.744;2023-09-18T05:55:14;11.30;;;3.40;;
48951;SDS011;34758;42.148;24.744;2023-09-18T05:57:44;6.45;;;2.55;;
48951;SDS011;34758;42.148;24.744;2023-09-18T06:00:11;7.40;;;1.75;;
48951;SDS011;34758;42.148;24.744;2023-09-18T06:02:39;7.78;;;1.80;;
48951;SDS011;34758;42.148;24.744;2023-09-18T06:05:07;4.40;;;2.35;;
48951;SDS011;34758;42.148;24.744;2023-09-18T06:07:37;2.78;;;1.50;;
48951;SDS011;34758;42.148;24.744;2023-09-18T06:10:05;6.45;;;1.75;;
48951;SDS011;34758;42.148;24.744;2023-09-18T06:12:33;5.22;;;1.90;;
48951;SDS011;34758;42.148;24.744;2023-09-18T06:15:05;3.35;;;1.77;;
48951;SDS011;34758;42.148;24.744;2023-09-18T06:17:37;4.45;;;2.22;;
48951;SDS011;34758;42.148;24.744;2023-09-18T06:20:06;9.25;;;2.40;;
48951;SDS011;34758;42.148;24.744;2023-09-18T06:22:38;9.82;;;2.50;;
48951;SDS011;34758;42.148;24.744;2023-09-18T06:25:07;3.72;;;1.80;;
48951;SDS011;34758;42.148;24.744;2023-09-18T06:27:37;7.40;;;2.05;;
48951;SDS011;34758;42.148;24.744;2023-09-18T06:30:09;6.63;;;2.33;;
48951;SDS011;34758;42.148;24.744;2023-09-18T06:32:40;5.65;;;3.00;;
48951;SDS011;34758;42.148;24.744;2023-09-18T06:35:08;5.63;;;2.10;;
48951;SDS011;34758;42.148;24.744;2023-09-18T06:37:38;9.00;;;2.47;;
48951;SDS011;34758;42.148;24.744;2023-09-18T06:40:06;3.60;;;2.13;;
48951;SDS011;34758;42.148;24.744;2023-09-18T06:42:34;3.25;;;1.65;;
48951;SDS011;34758;42.148;24.744;2023-09-18T06:45:02;3.25;;;1.48;;
48951;SDS011;34758;42.148;24.744;2023-09-18T06:47:35;3.08;;;1.40;;
48951;SDS011;34758;42.148;24.744;2023-09-18T06:50:03;3.38;;;1.60;;
48951;SDS011;34758;42.148;24.744;2023-09-18T06:52:31;3.47;;;1.95;;
48951;SDS011;34758;42.148;24.744;2023-09-18T06:54:58;5.45;;;2.28;;
48951;SDS011;34758;42.148;24.744;2023-09-18T06:57:33;6.03;;;2.08;;
48951;SDS011;34758;42.148;24.744;2023-09-18T07:00:00;3.88;;;1.67;;
48951;SDS011;34758;42.148;24.744;2023-09-18T07:02:28;7.63;;;1.60;;
48951;SDS011;34758;42.148;24.744;2023-09-18T07:04:59;4.40;;;1.55;;
48951;SDS011;34758;42.148;24.744;2023-09-18T07:07:28;7.68;;;1.60;;
48951;SDS011;34758;42.148;24.744;2023-09-18T07:09:57;2.47;;;1.55;;
48951;SDS011;34758;42.148;24.744;2023-09-18T07:12:24;2.95;;;1.60;;
48951;SDS011;34758;42.148;24.744;2023-09-18T07:14:54;3.53;;;1.70;;
48951;SDS011;34758;42.148;24.744;2023-09-18T07:17:21;4.63;;;2.05;;
48951;SDS011;34758;42.148;24.744;2023-09-18T07:19:48;2.78;;;1.50;;
48951;SDS011;34758;42.148;24.744;2023-09-18T07:22:20;5.75;;;2.20;;
48951;SDS011;34758;42.148;24.744;2023-09-18T07:24:47;3.33;;;1.90;;
48951;SDS011;34758;42.148;24.744;2023-09-18T07:27:14;4.18;;;1.80;;
48951;SDS011;34758;42.148;24.744;2023-09-18T07:29:41;3.22;;;1.98;;
48951;SDS011;34758;42.148;24.744;2023-09-18T07:32:08;4.72;;;1.80;;
48951;SDS011;34758;42.148;24.744;2023-09-18T07:34:35;4.40;;;1.67;;
48951;SDS011;34758;42.148;24.744;2023-09-18T07:37:06;4.97;;;2.23;;
48951;SDS011;34758;42.148;24.744;2023-09-18T07:39:37;3.65;;;1.65;;
48951;SDS011;34758;42.148;24.744;2023-09-18T07:42:07;3.75;;;1.88;;
48951;SDS011;34758;42.148;24.744;2023-09-18T07:44:35;4.05;;;1.50;;
48951;SDS011;34758;42.148;24.744;2023-09-18T07:47:02;2.95;;;1.60;;
48951;SDS011;34758;42.148;24.744;2023-09-18T07:49:30;3.20;;;1.40;;
48951;SDS011;34758;42.148;24.744;2023-09-18T07:51:59;4.35;;;1.95;;
48951;SDS011;34758;42.148;24.744;2023-09-18T07:54:27;2.67;;;1.17;;
48951;SDS011;34758;42.148;24.744;2023-09-18T07:56:56;3.72;;;1.48;;
48951;SDS011;34758;42.148;24.744;2023-09-18T07:59:24;5.45;;;1.60;;
48951;SDS011;34758;42.148;24.744;2023-09-18T08:01:54;4.93;;;1.70;;
48951;SDS011;34758;42.148;24.744;2023-09-18T08:04:20;2.97;;;1.35;;
48951;SDS011;34758;42.148;24.744;2023-09-18T08:06:47;2.88;;;1.30;;
48951;SDS011;34758;42.148;24.744;2023-09-18T08:09:17;3.20;;;1.25;;
48951;SDS011;34758;42.148;24.744;2023-09-18T08:11:45;3.83;;;1.42;;
48951;SDS011;34758;42.148;24.744;2023-09-18T08:14:18;3.63;;;1.70;;
48951;SDS011;34758;42.148;24.744;2023-09-18T08:16:54;1.85;;;1.50;;
48951;SDS011;34758;42.148;24.744;2023-09-18T08:19:25;2.45;;;1.60;;
48951;SDS011;34758;42.148;24.744;2023-09-18T08:21:53;4.38;;;1.50;;
48951;SDS011;34758;42.148;24.744;2023-09-18T08:24:21;3.58;;;1.58;;
48951;SDS011;34758;42.148;24.744;2023-09-18T08:26:48;3.42;;;1.40;;
48951;SDS011;34758;42.148;24.744;2023-09-18T08:29:18;2.88;;;1.50;;
48951;SDS011;34758;42.148;24.744;2023-09-18T08:31:45;4.45;;;1.95;;
48951;SDS011;34758;42.148;24.744;2023-09-18T08:34:18;3.20;;;1.75;;
48951;SDS011;34758;42.148;24.744;2023-09-18T08:36:45;4.20;;;2.08;;
48951;SDS011;34758;42.148;24.744;2023-09-18T08:39:13;4.55;;;1.48;;
48951;SDS011;34758;42.148;24.744;2023-09-18T08:41:42;2.22;;;1.60;;
48951;SDS011;34758;42.148;24.744;2023-09-18T08:44:23;3.47;;;1.70;;
48951;SDS011;34758;42.148;24.744;2023-09-18T08:46:54;3.20;;;1.48;;
48951;SDS011;34758;42.148;24.744;2023-09-18T08:49:25;3.83;;;1.83;;
48951;SDS011;34758;42.148;24.744;2023-09-18T08:52:04;3.58;;;1.55;;
48951;SDS011;34758;42.148;24.744;2023-09-18T08:54:40;3.38;;;1.50;;
48951;SDS011;34758;42.148;24.744;2023-09-18T08:57:07;4.25;;;1.58;;
48951;SDS011;34758;42.148;24.744;2023-09-18T08:59:36;3.65;;;1.20;;
48951;SDS011;34758;42.148;24.744;2023-09-18T09:02:05;4.13;;;1.40;;
48951;SDS011;34758;42.148;24.744;2023-09-18T09:04:38;2.05;;;1.10;;
48951;SDS011;34758;42.148;24.744;2023-09-18T09:07:05;4.63;;;1.38;;
48951;SDS011;34758;42.148;24.744;2023-09-18T09:09:35;4.82;;;1.45;;
48951;SDS011;34758;42.148;24.744;2023-09-18T09:12:04;3.80;;;1.52;;
48951;SDS011;34758;42.148;24.744;2023-09-18T09:14:32;6.65;;;1.70;;
48951;SDS011;34758;42.148;24.744;2023-09-18T09:17:02;4.05;;;1.40;;
48951;SDS011;34758;42.148;24.744;2023-09-18T09:19:33;2.15;;;1.35;;
48951;SDS011;34758;42.148;24.744;2023-09-18T09:24:36;3.50;;;1.98;;
48951;SDS011;34758;42.148;24.744;2023-09-18T09:27:04;6.70;;;1.42;;
48951;SDS011;34758;42.148;24.744;2023-09-18T09:29:31;3.10;;;1.33;;
48951;SDS011;34758;42.148;24.744;2023-09-18T09:32:13;5.13;;;2.40;;
48951;SDS011;34758;42.148;24.744;2023-09-18T09:34:41;3.63;;;1.60;;
48951;SDS011;34758;42.148;24.744;2023-09-18T09:37:09;3.38;;;1.77;;
48951;SDS011;34758;42.148;24.744;2023-09-18T09:39:46;2.90;;;1.75;;
48951;SDS011;34758;42.148;24.744;2023-09-18T09:42:15;4.82;;;2.00;;
48951;SDS011;34758;42.148;24.744;2023-09-18T09:44:55;4.70;;;1.70;;
48951;SDS011;34758;42.148;24.744;2023-09-18T09:47:32;3.13;;;1.45;;
48951;SDS011;34758;42.148;24.744;2023-09-18T09:52:33;3.10;;;2.30;;
48951;SDS011;34758;42.148;24.744;2023-09-18T09:55:00;3.80;;;2.20;;
48951;SDS011;34758;42.148;24.744;2023-09-18T09:57:29;4.15;;;1.98;;
48951;SDS011;34758;42.148;24.744;2023-09-18T10:00:02;2.92;;;1.92;;
48951;SDS011;34758;42.148;24.744;2023-09-18T10:02:48;4.75;;;1.90;;
48951;SDS011;34758;42.148;24.744;2023-09-18T10:05:15;5.43;;;1.80;;
48951;SDS011;34758;42.148;24.744;2023-09-18T10:07:44;4.47;;;2.40;;
48951;SDS011;34758;42.148;24.744;2023-09-18T10:10:11;4.70;;;1.73;;
48951;SDS011;34758;42.148;24.744;2023-09-18T10:12:38;5.22;;;2.00;;
48951;SDS011;34758;42.148;24.744;2023-09-18T10:15:06;3.95;;;1.75;;
48951;SDS011;34758;42.148;24.744;2023-09-18T10:17:36;3.63;;;1.88;;
48951;SDS011;34758;42.148;24.744;2023-09-18T10:20:13;5.05;;;1.77;;
48951;SDS011;34758;42.148;24.744;2023-09-18T10:22:47;3.78;;;1.98;;
48951;SDS011;34758;42.148;24.744;2023-09-18T10:25:17;2.88;;;1.88;;
48951;SDS011;34758;42.148;24.744;2023-09-18T10:27:45;3.92;;;2.03;;
48951;SDS011;34758;42.148;24.744;2023-09-18T10:30:14;2.88;;;1.90;;
48951;SDS011;34758;42.148;24.744;2023-09-18T10:32:43;4.28;;;1.95;;
48951;SDS011;34758;42.148;24.744;2023-09-18T10:35:14;4.05;;;2.22;;
48951;SDS011;34758;42.148;24.744;2023-09-18T10:37:43;4.03;;;2.03;;
48951;SDS011;34758;42.148;24.744;2023-09-18T10:40:13;3.13;;;1.70;;
48951;SDS011;34758;42.148;24.744;2023-09-18T10:42:43;3.58;;;1.90;;
48951;SDS011;34758;42.148;24.744;2023-09-18T10:45:12;3.03;;;1.40;;
48951;SDS011;34758;42.148;24.744;2023-09-18T10:47:42;2.72;;;1.80;;
48951;SDS011;34758;42.148;24.744;2023-09-18T10:50:13;3.80;;;1.85;;
48951;SDS011;34758;42.148;24.744;2023-09-18T10:52:53;3.45;;;1.50;;
48951;SDS011;34758;42.148;24.744;2023-09-18T10:55:24;6.03;;;1.67;;
48951;SDS011;34758;42.148;24.744;2023-09-18T10:57:54;4.28;;;1.65;;
48951;SDS011;34758;42.148;24.744;2023-09-18T11:00:24;1.60;;;1.40;;
48951;SDS011;34758;42.148;24.744;2023-09-18T11:02:53;2.10;;;1.63;;
48951;SDS011;34758;42.148;24.744;2023-09-18T11:05:34;2.47;;;1.60;;
48951;SDS011;34758;42.148;24.744;2023-09-18T11:10:55;4.50;;;1.55;;
48951;SDS011;34758;42.148;24.744;2023-09-18T11:13:30;2.80;;;1.40;;
48951;SDS011;34758;42.148;24.744;2023-09-18T11:16:00;1.98;;;1.60;;
48951;SDS011;34758;42.148;24.744;2023-09-18T11:18:32;5.10;;;1.55;;
48951;SDS011;34758;42.148;24.744;2023-09-18T11:21:07;6.30;;;1.63;;
48951;SDS011;34758;42.148;24.744;2023-09-18T11:23:35;3.80;;;1.60;;
48951;SDS011;34758;42.148;24.744;2023-09-18T11:26:06;2.75;;;1.60;;
48951;SDS011;34758;42.148;24.744;2023-09-18T11:28:34;3.15;;;1.35;;
48951;SDS011;34758;42.148;24.744;2023-09-18T11:31:02;4.22;;;1.45;;
48951;SDS011;34758;42.148;24.744;2023-09-18T11:33:33;3.22;;;1.50;;
48951;SDS011;34758;42.148;24.744;2023-09-18T11:36:04;3.25;;;1.70;;
48951;SDS011;34758;42.148;24.744;2023-09-18T11:38:53;1.80;;;1.50;;
48951;SDS011;34758;42.148;24.744;2023-09-18T11:41:28;3.38;;;1.92;;
48951;SDS011;34758;42.148;24.744;2023-09-18T11:47:06;2.83;;;1.42;;
48951;SDS011;34758;42.148;24.744;2023-09-18T11:49:38;3.03;;;1.60;;
48951;SDS011;34758;42.148;24.744;2023-09-18T11:52:09;3.40;;;1.20;;
48951;SDS011;34758;42.148;24.744;2023-09-18T11:54:39;2.75;;;1.50;;
48951;SDS011;34758;42.148;24.744;2023-09-18T11:57:07;3.25;;;1.35;;
48951;SDS011;34758;42.148;24.744;2023-09-18T11:59:37;2.38;;;1.27;;
48951;SDS011;34758;42.148;24.744;2023-09-18T12:02:09;8.05;;;1.42;;
48951;SDS011;34758;42.148;24.744;2023-09-18T12:04:36;3.72;;;1.30;;
48951;SDS011;34758;42.148;24.744;2023-09-18T12:07:04;3.22;;;1.40;;
48951;SDS011;34758;42.148;24.744;2023-09-18T12:09:35;2.65;;;1.10;;
48951;SDS011;34758;42.148;24.744;2023-09-18T12:12:05;3.07;;;1.30;;
48951;SDS011;34758;42.148;24.744;2023-09-18T12:14:33;4.43;;;1.65;;
48951;SDS011;34758;42.148;24.744;2023-09-18T12:17:07;4.20;;;1.23;;
48951;SDS011;34758;42.148;24.744;2023-09-18T12:19:34;2.38;;;1.20;;
48951;SDS011;34758;42.148;24.744;2023-09-18T12:22:02;3.45;;;1.33;;
48951;SDS011;34758;42.148;24.744;2023-09-18T12:24:31;3.05;;;1.48;;
48951;SDS011;34758;42.148;24.744;2023-09-18T12:27:00;4.53;;;1.80;;
48951;SDS011;34758;42.148;24.744;2023-09-18T12:29:28;3.65;;;1.27;;
48951;SDS011;34758;42.148;24.744;2023-09-18T12:31:54;4.15;;;1.20;;
48951;SDS011;34758;42.148;24.744;2023-09-18T12:34:22;4.40;;;1.70;;
48951;SDS011;34758;42.148;24.744;2023-09-18T12:36:50;2.60;;;1.10;;
48951;SDS011;34758;42.148;24.744;2023-09-18T12:39:18;2.88;;;1.48;;
48951;SDS011;34758;42.148;24.744;2023-09-18T12:41:45;4.93;;;1.70;;
48951;SDS011;34758;42.148;24.744;2023-09-18T12:44:18;2.42;;;1.33;;
48951;SDS011;34758;42.148;24.744;2023-09-18T12:46:45;2.38;;;1.63;;
48951;SDS011;34758;42.148;24.744;2023-09-18T12:49:17;3.78;;;2.30;;
48951;SDS011;34758;42.148;24.744;2023-09-18T12:51:53;4.10;;;2.10;;
48951;SDS011;34758;42.148;24.744;2023-09-18T12:54:21;3.90;;;1.33;;
48951;SDS011;34758;42.148;24.744;2023-09-18T12:56:49;5.60;;;1.88;;
48951;SDS011;34758;42.148;24.744;2023-09-18T12:59:16;4.43;;;1.40;;
48951;SDS011;34758;42.148;24.744;2023-09-18T13:01:45;3.20;;;1.58;;
48951;SDS011;34758;42.148;24.744;2023-09-18T13:04:13;2.13;;;1.52;;
48951;SDS011;34758;42.148;24.744;2023-09-18T13:06:40;1.98;;;1.52;;
48951;SDS011;34758;42.148;24.744;2023-09-18T13:09:16;2.47;;;1.40;;
48951;SDS011;34758;42.148;24.744;2023-09-18T13:11:51;1.75;;;1.10;;
48951;SDS011;34758;42.148;24.744;2023-09-18T13:14:21;1.95;;;1.30;;
48951;SDS011;34758;42.148;24.744;2023-09-18T13:16:49;2.63;;;1.20;;
48951;SDS011;34758;42.148;24.744;2023-09-18T13:19:19;1.80;;;1.17;;
48951;SDS011;34758;42.148;24.744;2023-09-18T13:21:47;4.45;;;1.92;;
48951;SDS011;34758;42.148;24.744;2023-09-18T13:24:24;3.78;;;1.40;;
48951;SDS011;34758;42.148;24.744;2023-09-18T13:26:52;2.65;;;1.52;;
48951;SDS011;34758;42.148;24.744;2023-09-18T13:29:26;2.55;;;1.30;;
48951;SDS011;34758;42.148;24.744;2023-09-18T13:31:54;2.70;;;1.42;;
48951;SDS011;34758;42.148;24.744;2023-09-18T13:34:21;3.22;;;1.35;;
48951;SDS011;34758;42.148;24.744;2023-09-18T13:36:48;1.63;;;1.30;;
48951;SDS011;34758;42.148;24.744;2023-09-18T13:39:15;1.90;;;1.42;;
48951;SDS011;34758;42.148;24.744;2023-09-18T13:41:43;4.40;;;1.73;;
48951;SDS011;34758;42.148;24.744;2023-09-18T13:44:11;2.78;;;1.30;;
48951;SDS011;34758;42.148;24.744;2023-09-18T13:46:41;3.88;;;1.50;;
48951;SDS011;34758;42.148;24.744;2023-09-18T13:49:07;2.38;;;1.40;;
48951;SDS011;34758;42.148;24.744;2023-09-18T13:51:35;2.03;;;1.42;;
48951;SDS011;34758;42.148;24.744;2023-09-18T13:54:09;2.83;;;1.48;;
48951;SDS011;34758;42.148;24.744;2023-09-18T13:56:52;3.17;;;1.48;;
48951;SDS011;34758;42.148;24.744;2023-09-18T13:59:20;2.00;;;1.45;;
48951;SDS011;34758;42.148;24.744;2023-09-18T14:01:52;7.35;;;2.03;;
48951;SDS011;34758;42.148;24.744;2023-09-18T14:04:21;3.17;;;1.42;;
48951;SDS011;34758;42.148;24.744;2023-09-18T14:06:50;4.32;;;2.08;;
48951;SDS011;34758;42.148;24.744;2023-09-18T14:09:17;2.17;;;1.45;;
48951;SDS011;34758;42.148;24.744;2023-09-18T14:11:45;1.75;;;1.50;;
48951;SDS011;34758;42.148;24.744;2023-09-18T14:14:16;2.38;;;1.63;;
48951;SDS011;34758;42.148;24.744;2023-09-18T14:16:44;2.13;;;1.40;;
48951;SDS011;34758;42.148;24.744;2023-09-18T14:19:14;2.85;;;2.05;;
48951;SDS011;34758;42.148;24.744;2023-09-18T14:21:41;3.67;;;1.70;;
48951;SDS011;34758;42.148;24.744;2023-09-18T14:24:08;3.97;;;1.92;;
48951;SDS011;34758;42.148;24.744;2023-09-18T14:26:36;3.83;;;1.77;;
48951;SDS011;34758;42.148;24.744;2023-09-18T14:29:07;3.80;;;2.92;;
48951;SDS011;34758;42.148;24.744;2023-09-18T14:31:35;2.88;;;1.80;;
48951;SDS011;34758;42.148;24.744;2023-09-18T14:34:03;2.80;;;1.80;;
48951;SDS011;34758;42.148;24.744;2023-09-18T14:36:35;3.53;;;2.10;;
48951;SDS011;34758;42.148;24.744;2023-09-18T14:39:04;3.08;;;2.03;;
48951;SDS011;34758;42.148;24.744;2023-09-18T14:41:35;4.05;;;1.60;;
48951;SDS011;34758;42.148;24.744;2023-09-18T14:44:02;7.30;;;2.42;;
48951;SDS011;34758;42.148;24.744;2023-09-18T14:46:29;4.13;;;2.05;;
48951;SDS011;34758;42.148;24.744;2023-09-18T14:48:56;2.53;;;2.00;;
48951;SDS011;34758;42.148;24.744;2023-09-18T14:51:23;4.43;;;2.45;;
48951;SDS011;34758;42.148;24.744;2023-09-18T14:53:52;5.00;;;2.40;;
48951;SDS011;34758;42.148;24.744;2023-09-18T14:56:20;6.32;;;2.67;;
48951;SDS011;34758;42.148;24.744;2023-09-18T14:58:48;5.68;;;3.30;;
48951;SDS011;34758;42.148;24.744;2023-09-18T15:01:17;3.22;;;2.70;;